sensor_id;sensor_type;location;lat;lon;timestamp;pressure;altitude;pressure_sealevel;temperature;humidity
23339;BME280;11841;49.368;20.962;2023-03-24T00:01:30;95408.22;;;9.85;77.52
23339;BME280;11841;49.368;20.962;2023-03-24T00:03:57;95396.81;;;9.85;77.88
23339;BME280;11841;49.368;20.962;2023-03-24T00:06:24;95409.72;;;9.74;78.72
23339;BME280;11841;49.368;20.962;2023-03-24T00:08:52;95401.19;;;9.72;78.52
23339;BME280;11841;49.368;20.962;2023-03-24T00:11:19;95392.69;;;9.70;78.32
23339;BME280;11841;49.368;20.962;2023-03-24T00:13:46;95400.03;;;9.68;78.23
23339;BME280;11841;49.368;20.962;2023-03-24T00:16:15;95402.09;;;9.66;78.36
23339;BME280;11841;49.368;20.962;2023-03-24T00:18:45;95404.13;;;9.64;78.34
23339;BME280;11841;49.368;20.962;2023-03-24T00:21:15;95408.22;;;9.60;78.47
23339;BME280;11841;49.368;20.962;2023-03-24T00:23:43;95400.72;;;9.57;78.61
23339;BME280;11841;49.368;20.962;2023-03-24T00:26:13;95398.09;;;9.57;78.71
23339;BME280;11841;49.368;20.962;2023-03-24T00:28:44;95395.28;;;9.52;78.69
23339;BME280;11841;49.368;20.962;2023-03-24T00:31:11;95392.25;;;9.49;78.93
23339;BME280;11841;49.368;20.962;2023-03-24T00:33:41;95387.19;;;9.47;78.78
23339;BME280;11841;49.368;20.962;2023-03-24T00:36:09;95385.81;;;9.45;78.87
23339;BME280;11841;49.368;20.962;2023-03-24T00:38:39;95388.06;;;9.41;79.04
23339;BME280;11841;49.368;20.962;2023-03-24T00:41:07;95384.81;;;9.39;79.27
23339;BME280;11841;49.368;20.962;2023-03-24T00:43:34;95387.31;;;9.34;79.48
23339;BME280;11841;49.368;20.962;2023-03-24T00:46:01;95384.06;;;9.32;79.12
23339;BME280;11841;49.368;20.962;2023-03-24T00:48:29;95382.66;;;9.30;79.76
23339;BME280;11841;49.368;20.962;2023-03-24T00:50:56;95384.94;;;9.26;80.22
23339;BME280;11841;49.368;20.962;2023-03-24T00:53:23;95383.31;;;9.25;79.87
23339;BME280;11841;49.368;20.962;2023-03-24T00:55:51;95381.25;;;9.27;79.56
23339;BME280;11841;49.368;20.962;2023-03-24T00:58:17;95374.78;;;9.23;79.42
23339;BME280;11841;49.368;20.962;2023-03-24T01:00:45;95382.16;;;9.21;79.62
23339;BME280;11841;49.368;20.962;2023-03-24T01:03:12;95374.41;;;9.20;79.73
23339;BME280;11841;49.368;20.962;2023-03-24T01:05:39;95375.66;;;9.17;79.42
23339;BME280;11841;49.368;20.962;2023-03-24T01:08:07;95368.38;;;9.13;79.64
23339;BME280;11841;49.368;20.962;2023-03-24T01:10:35;95368.78;;;9.10;80.09
23339;BME280;11841;49.368;20.962;2023-03-24T01:13:08;95372.25;;;9.10;80.07
23339;BME280;11841;49.368;20.962;2023-03-24T01:15:35;95366.34;;;9.08;80.04
23339;BME280;11841;49.368;20.962;2023-03-24T01:18:02;95372.09;;;9.05;80.59
23339;BME280;11841;49.368;20.962;2023-03-24T01:20:29;95366.41;;;9.02;80.46
23339;BME280;11841;49.368;20.962;2023-03-24T01:22:59;95365.59;;;9.01;80.84
23339;BME280;11841;49.368;20.962;2023-03-24T01:25:26;95369.28;;;9.00;80.61
23339;BME280;11841;49.368;20.962;2023-03-24T01:27:53;95371.31;;;8.98;80.56
23339;BME280;11841;49.368;20.962;2023-03-24T01:30:21;95375.00;;;8.97;80.33
23339;BME280;11841;49.368;20.962;2023-03-24T01:32:48;95380.72;;;8.94;80.64
23339;BME280;11841;49.368;20.962;2023-03-24T01:35:15;95377.88;;;8.89;80.32
23339;BME280;11841;49.368;20.962;2023-03-24T01:37:42;95369.78;;;8.84;80.43
23339;BME280;11841;49.368;20.962;2023-03-24T01:40:10;95374.13;;;8.79;81.15
23339;BME280;11841;49.368;20.962;2023-03-24T01:42:41;95371.88;;;8.76;80.88
23339;BME280;11841;49.368;20.962;2023-03-24T01:47:53;95376.00;;;8.72;81.04
23339;BME280;11841;49.368;20.962;2023-03-24T01:50:21;95363.22;;;8.69;81.47
23339;BME280;11841;49.368;20.962;2023-03-24T01:52:47;95363.78;;;8.71;81.30
23339;BME280;11841;49.368;20.962;2023-03-24T01:55:14;95370.31;;;8.68;81.39
23339;BME280;11841;49.368;20.962;2023-03-24T01:57:49;95359.13;;;8.66;81.05
23339;BME280;11841;49.368;20.962;2023-03-24T02:00:17;95352.03;;;8.67;81.54
23339;BME280;11841;49.368;20.962;2023-03-24T02:02:51;95358.53;;;8.64;81.35
23339;BME280;11841;49.368;20.962;2023-03-24T02:05:20;95356.94;;;8.63;81.75
23339;BME280;11841;49.368;20.962;2023-03-24T02:10:15;95347.38;;;8.62;81.90
23339;BME280;11841;49.368;20.962;2023-03-24T02:12:43;95353.47;;;8.63;81.68
23339;BME280;11841;49.368;20.962;2023-03-24T02:15:11;95361.44;;;8.56;82.45
23339;BME280;11841;49.368;20.962;2023-03-24T02:36:23;95365.78;;;8.44;84.11
23339;BME280;11841;49.368;20.962;2023-03-24T02:47:00;95355.63;;;8.41;83.78
23339;BME280;11841;49.368;20.962;2023-03-24T02:54:42;95341.22;;;8.37;84.78
23339;BME280;11841;49.368;20.962;2023-03-24T02:59:59;95347.31;;;8.37;83.79
23339;BME280;11841;49.368;20.962;2023-03-24T03:02:28;95350.19;;;8.36;84.34
23339;BME280;11841;49.368;20.962;2023-03-24T03:04:58;95347.53;;;8.36;84.19
23339;BME280;11841;49.368;20.962;2023-03-24T03:07:29;95344.28;;;8.34;84.17
23339;BME280;11841;49.368;20.962;2023-03-24T03:12:25;95349.41;;;8.29;83.95
23339;BME280;11841;49.368;20.962;2023-03-24T03:14:54;95345.56;;;8.25;83.75
23339;BME280;11841;49.368;20.962;2023-03-24T03:17:25;95346.38;;;8.25;83.74
23339;BME280;11841;49.368;20.962;2023-03-24T03:19:57;95345.34;;;8.20;83.87
23339;BME280;11841;49.368;20.962;2023-03-24T03:22:36;95346.38;;;8.19;83.67
23339;BME280;11841;49.368;20.962;2023-03-24T03:25:04;95353.09;;;8.15;83.63
23339;BME280;11841;49.368;20.962;2023-03-24T03:27:32;95352.69;;;8.11;83.67
23339;BME280;11841;49.368;20.962;2023-03-24T03:30:08;95351.50;;;8.07;83.56
23339;BME280;11841;49.368;20.962;2023-03-24T03:32:38;95358.00;;;8.05;83.46
23339;BME280;11841;49.368;20.962;2023-03-24T03:37:59;95349.91;;;8.00;83.50
23339;BME280;11841;49.368;20.962;2023-03-24T03:40:31;95341.81;;;7.95;83.41
23339;BME280;11841;49.368;20.962;2023-03-24T03:43:00;95353.41;;;7.94;83.53
23339;BME280;11841;49.368;20.962;2023-03-24T03:45:27;95356.03;;;7.94;83.50
23339;BME280;11841;49.368;20.962;2023-03-24T03:47:54;95357.47;;;7.90;84.35
23339;BME280;11841;49.368;20.962;2023-03-24T03:50:20;95348.31;;;7.86;84.51
23339;BME280;11841;49.368;20.962;2023-03-24T03:52:47;95354.03;;;7.83;85.03
23339;BME280;11841;49.368;20.962;2023-03-24T03:55:15;95355.84;;;7.89;83.72
23339;BME280;11841;49.368;20.962;2023-03-24T03:57:42;95354.03;;;7.83;84.44
23339;BME280;11841;49.368;20.962;2023-03-24T04:00:12;95350.78;;;7.81;84.42
23339;BME280;11841;49.368;20.962;2023-03-24T04:07:52;95342.91;;;7.68;84.64
23339;BME280;11841;49.368;20.962;2023-03-24T04:28:21;95327.16;;;7.48;84.65
23339;BME280;11841;49.368;20.962;2023-03-24T04:30:53;95324.91;;;7.45;84.90
23339;BME280;11841;49.368;20.962;2023-03-24T04:33:24;95324.69;;;7.47;85.02
23339;BME280;11841;49.368;20.962;2023-03-24T04:35:56;95320.66;;;7.44;84.26
23339;BME280;11841;49.368;20.962;2023-03-24T04:38:26;95320.88;;;7.43;85.45
23339;BME280;11841;49.368;20.962;2023-03-24T04:40:55;95315.59;;;7.43;85.18
23339;BME280;11841;49.368;20.962;2023-03-24T04:43:24;95329.78;;;7.42;85.54
23339;BME280;11841;49.368;20.962;2023-03-24T04:45:52;95322.47;;;7.44;85.62
23339;BME280;11841;49.368;20.962;2023-03-24T04:48:23;95327.34;;;7.47;85.64
23339;BME280;11841;49.368;20.962;2023-03-24T04:50:55;95310.28;;;7.49;85.01
23339;BME280;11841;49.368;20.962;2023-03-24T04:53:22;95310.94;;;7.45;86.35
23339;BME280;11841;49.368;20.962;2023-03-24T04:58:16;95318.22;;;7.49;86.79
23339;BME280;11841;49.368;20.962;2023-03-24T05:00:43;95326.53;;;7.53;87.32
23339;BME280;11841;49.368;20.962;2023-03-24T05:03:10;95318.78;;;7.58;86.74
23339;BME280;11841;49.368;20.962;2023-03-24T05:05:40;95318.16;;;7.62;87.01
23339;BME280;11841;49.368;20.962;2023-03-24T05:08:07;95325.28;;;7.62;87.70
23339;BME280;11841;49.368;20.962;2023-03-24T05:10:34;95332.78;;;7.65;87.96
23339;BME280;11841;49.368;20.962;2023-03-24T05:13:01;95328.13;;;7.67;87.89
23339;BME280;11841;49.368;20.962;2023-03-24T05:15:27;95336.63;;;7.62;89.63
23339;BME280;11841;49.368;20.962;2023-03-24T05:17:54;95332.00;;;7.58;88.75
23339;BME280;11841;49.368;20.962;2023-03-24T05:20:22;95320.00;;;7.62;89.31
23339;BME280;11841;49.368;20.962;2023-03-24T05:22:48;95325.69;;;7.59;90.57
23339;BME280;11841;49.368;20.962;2023-03-24T05:25:15;95314.72;;;7.62;89.71
23339;BME280;11841;49.368;20.962;2023-03-24T05:27:42;95323.22;;;7.64;90.01
23339;BME280;11841;49.368;20.962;2023-03-24T05:30:09;95320.19;;;7.67;89.35
23339;BME280;11841;49.368;20.962;2023-03-24T05:32:36;95326.66;;;7.71;89.10
23339;BME280;11841;49.368;20.962;2023-03-24T05:35:03;95327.28;;;7.73;89.68
23339;BME280;11841;49.368;20.962;2023-03-24T05:37:30;95328.69;;;7.75;90.32
23339;BME280;11841;49.368;20.962;2023-03-24T05:39:56;95321.97;;;7.79;89.48
23339;BME280;11841;49.368;20.962;2023-03-24T05:42:23;95326.63;;;7.84;89.75
23339;BME280;11841;49.368;20.962;2023-03-24T05:44:50;95326.22;;;7.87;90.39
23339;BME280;11841;49.368;20.962;2023-03-24T05:47:16;95323.16;;;7.90;90.80
23339;BME280;11841;49.368;20.962;2023-03-24T05:49:45;95325.56;;;7.91;90.57
23339;BME280;11841;49.368;20.962;2023-03-24T05:52:12;95322.13;;;7.97;90.22
23339;BME280;11841;49.368;20.962;2023-03-24T05:54:41;95319.88;;;8.01;91.34
23339;BME280;11841;49.368;20.962;2023-03-24T05:57:12;95319.88;;;8.01;93.51
23339;BME280;11841;49.368;20.962;2023-03-24T05:59:40;95323.09;;;8.03;93.81
23339;BME280;11841;49.368;20.962;2023-03-24T06:02:06;95314.56;;;8.07;93.34
23339;BME280;11841;49.368;20.962;2023-03-24T06:04:33;95322.66;;;8.12;93.47
23339;BME280;11841;49.368;20.962;2023-03-24T06:06:59;95326.25;;;8.18;92.83
23339;BME280;11841;49.368;20.962;2023-03-24T06:09:26;95323.00;;;8.22;93.44
23339;BME280;11841;49.368;20.962;2023-03-24T06:12:03;95321.38;;;8.28;93.83
23339;BME280;11841;49.368;20.962;2023-03-24T06:14:30;95320.97;;;8.31;93.89
23339;BME280;11841;49.368;20.962;2023-03-24T06:16:58;95320.91;;;8.37;94.15
23339;BME280;11841;49.368;20.962;2023-03-24T06:19:25;95326.75;;;8.46;93.35
23339;BME280;11841;49.368;20.962;2023-03-24T06:21:52;95332.81;;;8.53;92.73
23339;BME280;11841;49.368;20.962;2023-03-24T06:24:19;95335.84;;;8.57;93.87
23339;BME280;11841;49.368;20.962;2023-03-24T06:26:46;95338.44;;;8.63;92.81
23339;BME280;11841;49.368;20.962;2023-03-24T06:29:16;95342.63;;;8.71;94.69
23339;BME280;11841;49.368;20.962;2023-03-24T06:31:43;95333.25;;;8.75;94.65
23339;BME280;11841;49.368;20.962;2023-03-24T06:34:10;95341.75;;;8.83;94.54
23339;BME280;11841;49.368;20.962;2023-03-24T06:36:37;95340.47;;;8.92;94.76
23339;BME280;11841;49.368;20.962;2023-03-24T06:39:03;95347.34;;;8.93;96.30
23339;BME280;11841;49.368;20.962;2023-03-24T06:41:31;95341.63;;;8.96;94.82
23339;BME280;11841;49.368;20.962;2023-03-24T06:43:57;95348.94;;;9.01;94.13
23339;BME280;11841;49.368;20.962;2023-03-24T06:46:26;95348.06;;;9.07;94.84
23339;BME280;11841;49.368;20.962;2023-03-24T06:48:53;95342.56;;;9.08;95.53
23339;BME280;11841;49.368;20.962;2023-03-24T06:51:20;95341.09;;;9.12;94.82
23339;BME280;11841;49.368;20.962;2023-03-24T06:53:46;95350.81;;;9.18;94.92
23339;BME280;11841;49.368;20.962;2023-03-24T06:56:13;95341.44;;;9.22;96.31
23339;BME280;11841;49.368;20.962;2023-03-24T06:58:45;95339.38;;;9.24;95.84
23339;BME280;11841;49.368;20.962;2023-03-24T07:01:12;95346.22;;;9.32;95.69
23339;BME280;11841;49.368;20.962;2023-03-24T07:03:40;95355.56;;;9.34;96.32
23339;BME280;11841;49.368;20.962;2023-03-24T07:06:08;95351.03;;;9.41;95.94
23339;BME280;11841;49.368;20.962;2023-03-24T07:08:35;95352.19;;;9.45;96.69
23339;BME280;11841;49.368;20.962;2023-03-24T07:11:03;95355.00;;;9.50;95.63
23339;BME280;11841;49.368;20.962;2023-03-24T07:13:31;95347.22;;;9.55;96.71
23339;BME280;11841;49.368;20.962;2023-03-24T07:15:57;95353.69;;;9.59;96.39
23339;BME280;11841;49.368;20.962;2023-03-24T07:18:24;95348.78;;;9.63;98.77
23339;BME280;11841;49.368;20.962;2023-03-24T07:20:51;95347.31;;;9.67;97.72
23339;BME280;11841;49.368;20.962;2023-03-24T07:23:17;95349.88;;;9.73;98.83
23339;BME280;11841;49.368;20.962;2023-03-24T07:25:44;95346.34;;;9.79;100.00
23339;BME280;11841;49.368;20.962;2023-03-24T07:28:11;95351.00;;;9.84;100.00
23339;BME280;11841;49.368;20.962;2023-03-24T07:30:37;95337.53;;;9.86;100.00
23339;BME280;11841;49.368;20.962;2023-03-24T07:33:06;95339.16;;;9.87;100.00
23339;BME280;11841;49.368;20.962;2023-03-24T07:35:33;95344.22;;;9.88;100.00
23339;BME280;11841;49.368;20.962;2023-03-24T07:37:59;95338.84;;;9.95;100.00
23339;BME280;11841;49.368;20.962;2023-03-24T07:40:26;95333.69;;;10.00;100.00
23339;BME280;11841;49.368;20.962;2023-03-24T07:42:53;95335.25;;;10.07;100.00
23339;BME280;11841;49.368;20.962;2023-03-24T07:45:19;95341.53;;;10.13;100.00
23339;BME280;11841;49.368;20.962;2023-03-24T07:47:46;95333.03;;;10.22;100.00
23339;BME280;11841;49.368;20.962;2023-03-24T07:50:13;95320.28;;;10.31;100.00
23339;BME280;11841;49.368;20.962;2023-03-24T07:52:40;95319.97;;;10.39;100.00
23339;BME280;11841;49.368;20.962;2023-03-24T07:55:07;95315.97;;;10.48;100.00
23339;BME280;11841;49.368;20.962;2023-03-24T07:57:55;95322.81;;;10.55;100.00
23339;BME280;11841;49.368;20.962;2023-03-24T08:00:22;95319.84;;;10.63;100.00
23339;BME280;11841;49.368;20.962;2023-03-24T08:02:51;95321.69;;;10.63;100.00
23339;BME280;11841;49.368;20.962;2023-03-24T08:05:19;95316.97;;;10.65;100.00
23339;BME280;11841;49.368;20.962;2023-03-24T08:07:46;95317.56;;;10.67;100.00
23339;BME280;11841;49.368;20.962;2023-03-24T08:10:19;95310.75;;;10.71;100.00
23339;BME280;11841;49.368;20.962;2023-03-24T08:12:46;95306.63;;;10.75;100.00
23339;BME280;11841;49.368;20.962;2023-03-24T08:15:15;95311.22;;;10.79;100.00
23339;BME280;11841;49.368;20.962;2023-03-24T08:17:41;95315.41;;;10.87;100.00
23339;BME280;11841;49.368;20.962;2023-03-24T08:20:08;95307.56;;;10.92;99.23
23339;BME280;11841;49.368;20.962;2023-03-24T08:22:40;95306.66;;;10.98;99.66
23339;BME280;11841;49.368;20.962;2023-03-24T08:25:08;95313.72;;;11.04;98.78
23339;BME280;11841;49.368;20.962;2023-03-24T08:27:37;95310.94;;;11.11;98.41
23339;BME280;11841;49.368;20.962;2023-03-24T08:30:04;95306.00;;;11.14;98.31
23339;BME280;11841;49.368;20.962;2023-03-24T08:32:31;95313.00;;;11.20;97.46
23339;BME280;11841;49.368;20.962;2023-03-24T08:34:57;95310.72;;;11.24;97.82
23339;BME280;11841;49.368;20.962;2023-03-24T08:37:24;95307.81;;;11.25;96.69
23339;BME280;11841;49.368;20.962;2023-03-24T08:39:51;95304.50;;;11.30;96.44
23339;BME280;11841;49.368;20.962;2023-03-24T08:42:17;95302.19;;;11.33;96.59
23339;BME280;11841;49.368;20.962;2023-03-24T08:44:44;95298.03;;;11.37;96.01
23339;BME280;11841;49.368;20.962;2023-03-24T08:47:11;95291.69;;;11.38;94.88
23339;BME280;11841;49.368;20.962;2023-03-24T08:49:38;95294.00;;;11.46;95.20
23339;BME280;11841;49.368;20.962;2023-03-24T08:52:04;95298.16;;;11.54;95.38
23339;BME280;11841;49.368;20.962;2023-03-24T08:54:31;95282.34;;;11.59;94.77
23339;BME280;11841;49.368;20.962;2023-03-24T08:56:58;95290.78;;;11.67;94.36
23339;BME280;11841;49.368;20.962;2023-03-24T08:59:24;95289.59;;;11.75;93.48
23339;BME280;11841;49.368;20.962;2023-03-24T09:01:51;95287.84;;;11.80;93.19
23339;BME280;11841;49.368;20.962;2023-03-24T09:04:18;95292.81;;;11.88;92.93
23339;BME280;11841;49.368;20.962;2023-03-24T09:06:44;95287.69;;;11.98;92.50
23339;BME280;11841;49.368;20.962;2023-03-24T09:09:11;95278.31;;;12.07;91.91
23339;BME280;11841;49.368;20.962;2023-03-24T09:11:37;95278.19;;;12.14;91.78
23339;BME280;11841;49.368;20.962;2023-03-24T09:14:04;95274.00;;;12.18;90.45
23339;BME280;11841;49.368;20.962;2023-03-24T09:16:30;95278.59;;;12.23;90.88
23339;BME280;11841;49.368;20.962;2023-03-24T09:18:57;95276.53;;;12.25;90.33
23339;BME280;11841;49.368;20.962;2023-03-24T09:21:23;95269.59;;;12.24;89.76
23339;BME280;11841;49.368;20.962;2023-03-24T09:23:50;95267.50;;;12.26;89.49
23339;BME280;11841;49.368;20.962;2023-03-24T09:26:17;95266.22;;;12.28;89.30
23339;BME280;11841;49.368;20.962;2023-03-24T09:28:43;95259.13;;;12.34;89.76
23339;BME280;11841;49.368;20.962;2023-03-24T09:31:10;95262.94;;;12.38;89.24
23339;BME280;11841;49.368;20.962;2023-03-24T09:33:36;95266.75;;;12.42;88.76
23339;BME280;11841;49.368;20.962;2023-03-24T09:36:03;95256.19;;;12.47;88.16
23339;BME280;11841;49.368;20.962;2023-03-24T09:38:30;95255.00;;;12.54;87.42
23339;BME280;11841;49.368;20.962;2023-03-24T09:40:57;95251.63;;;12.59;87.68
23339;BME280;11841;49.368;20.962;2023-03-24T09:43:30;95248.25;;;12.63;88.02
23339;BME280;11841;49.368;20.962;2023-03-24T09:46:00;95235.84;;;12.69;87.56
23339;BME280;11841;49.368;20.962;2023-03-24T09:51:11;95228.59;;;12.81;84.77
23339;BME280;11841;49.368;20.962;2023-03-24T09:53:42;95225.59;;;12.94;85.04
23339;BME280;11841;49.368;20.962;2023-03-24T09:56:13;95225.44;;;13.00;85.28
23339;BME280;11841;49.368;20.962;2023-03-24T09:58:40;95223.78;;;13.11;82.93
23339;BME280;11841;49.368;20.962;2023-03-24T10:01:10;95225.53;;;13.22;81.19
23339;BME280;11841;49.368;20.962;2023-03-24T10:03:37;95214.94;;;13.27;81.60
23339;BME280;11841;49.368;20.962;2023-03-24T10:06:14;95216.06;;;13.31;82.06
23339;BME280;11841;49.368;20.962;2023-03-24T10:08:44;95207.59;;;13.34;82.42
23339;BME280;11841;49.368;20.962;2023-03-24T10:11:16;95207.34;;;13.35;81.79
23339;BME280;11841;49.368;20.962;2023-03-24T10:13:50;95199.41;;;13.41;81.58
23339;BME280;11841;49.368;20.962;2023-03-24T10:16:29;95205.06;;;13.44;82.24
23339;BME280;11841;49.368;20.962;2023-03-24T10:21:29;95200.88;;;13.48;80.86
23339;BME280;11841;49.368;20.962;2023-03-24T10:29:06;95192.03;;;13.64;76.82
23339;BME280;11841;49.368;20.962;2023-03-24T10:31:37;95192.63;;;13.71;75.15
23339;BME280;11841;49.368;20.962;2023-03-24T10:34:07;95186.31;;;13.77;75.31
23339;BME280;11841;49.368;20.962;2023-03-24T10:36:35;95197.59;;;13.84;76.39
23339;BME280;11841;49.368;20.962;2023-03-24T10:39:04;95193.38;;;13.88;76.69
23339;BME280;11841;49.368;20.962;2023-03-24T10:41:45;95193.16;;;13.95;77.18
23339;BME280;11841;49.368;20.962;2023-03-24T10:44:12;95193.53;;;14.03;75.04
23339;BME280;11841;49.368;20.962;2023-03-24T10:46:43;95186.91;;;14.06;76.06
23339;BME280;11841;49.368;20.962;2023-03-24T10:51:43;95182.53;;;14.21;73.33
23339;BME280;11841;49.368;20.962;2023-03-24T10:54:11;95182.84;;;14.25;72.84
23339;BME280;11841;49.368;20.962;2023-03-24T10:56:38;95173.31;;;14.29;72.02
23339;BME280;11841;49.368;20.962;2023-03-24T11:04:38;95165.22;;;14.45;70.71
23339;BME280;11841;49.368;20.962;2023-03-24T11:09:39;95157.84;;;14.58;71.79
23339;BME280;11841;49.368;20.962;2023-03-24T11:15:19;95161.69;;;14.72;71.50
23339;BME280;11841;49.368;20.962;2023-03-24T11:17:52;95164.13;;;14.78;70.47
23339;BME280;11841;49.368;20.962;2023-03-24T11:20:24;95163.38;;;14.83;70.49
23339;BME280;11841;49.368;20.962;2023-03-24T11:22:55;95153.56;;;14.93;69.22
23339;BME280;11841;49.368;20.962;2023-03-24T11:25:29;95156.81;;;15.00;69.41
23339;BME280;11841;49.368;20.962;2023-03-24T11:28:00;95141.09;;;15.04;67.10
23339;BME280;11841;49.368;20.962;2023-03-24T11:30:31;95148.09;;;15.15;67.35
23339;BME280;11841;49.368;20.962;2023-03-24T11:32:58;95147.06;;;15.21;66.02
23339;BME280;11841;49.368;20.962;2023-03-24T11:35:25;95139.13;;;15.36;65.41
23339;BME280;11841;49.368;20.962;2023-03-24T11:38:07;95139.69;;;15.38;66.40
23339;BME280;11841;49.368;20.962;2023-03-24T11:40:33;95126.91;;;15.40;65.83
23339;BME280;11841;49.368;20.962;2023-03-24T11:43:00;95128.53;;;15.46;66.34
23339;BME280;11841;49.368;20.962;2023-03-24T11:48:01;95131.78;;;15.58;64.06
23339;BME280;11841;49.368;20.962;2023-03-24T11:50:32;95124.06;;;15.66;61.40
23339;BME280;11841;49.368;20.962;2023-03-24T11:53:16;95115.56;;;15.75;60.77
23339;BME280;11841;49.368;20.962;2023-03-24T11:58:16;95116.88;;;15.77;59.88
23339;BME280;11841;49.368;20.962;2023-03-24T12:00:51;95116.38;;;15.90;58.58
23339;BME280;11841;49.368;20.962;2023-03-24T12:08:47;95101.16;;;16.01;57.73
23339;BME280;11841;49.368;20.962;2023-03-24T12:14:06;95087.03;;;16.10;56.40
23339;BME280;11841;49.368;20.962;2023-03-24T12:16:51;95080.06;;;16.14;56.74
23339;BME280;11841;49.368;20.962;2023-03-24T12:22:03;95078.47;;;16.18;58.10
23339;BME280;11841;49.368;20.962;2023-03-24T12:24:47;95077.13;;;16.26;56.02
23339;BME280;11841;49.368;20.962;2023-03-24T12:27:35;95068.88;;;16.32;58.13
23339;BME280;11841;49.368;20.962;2023-03-24T12:45:49;95041.28;;;16.72;55.30
23339;BME280;11841;49.368;20.962;2023-03-24T12:56:26;95038.06;;;16.75;53.92
23339;BME280;11841;49.368;20.962;2023-03-24T12:58:58;95041.53;;;16.75;54.93
23339;BME280;11841;49.368;20.962;2023-03-24T13:01:30;95025.75;;;16.79;54.58
23339;BME280;11841;49.368;20.962;2023-03-24T13:06:35;95034.03;;;16.87;55.28
23339;BME280;11841;49.368;20.962;2023-03-24T13:11:34;95027.09;;;16.86;54.11
23339;BME280;11841;49.368;20.962;2023-03-24T13:14:03;95035.13;;;16.86;53.15
23339;BME280;11841;49.368;20.962;2023-03-24T13:16:33;95031.91;;;16.84;53.68
23339;BME280;11841;49.368;20.962;2023-03-24T13:19:01;95027.88;;;16.87;53.07
23339;BME280;11841;49.368;20.962;2023-03-24T13:21:28;95027.88;;;16.82;53.45
23339;BME280;11841;49.368;20.962;2023-03-24T13:24:05;95030.56;;;16.82;53.22
23339;BME280;11841;49.368;20.962;2023-03-24T13:32:15;95017.19;;;16.77;53.29
23339;BME280;11841;49.368;20.962;2023-03-24T13:37:40;95004.63;;;16.72;54.22
23339;BME280;11841;49.368;20.962;2023-03-24T13:40:17;94998.75;;;16.70;54.72
23339;BME280;11841;49.368;20.962;2023-03-24T13:42:46;95005.44;;;16.68;54.84
23339;BME280;11841;49.368;20.962;2023-03-24T13:50:37;95004.63;;;16.67;53.20
23339;BME280;11841;49.368;20.962;2023-03-24T13:53:05;95009.44;;;16.70;53.63
23339;BME280;11841;49.368;20.962;2023-03-24T13:55:35;95003.56;;;16.63;53.36
23339;BME280;11841;49.368;20.962;2023-03-24T13:58:22;94991.81;;;16.64;53.64
23339;BME280;11841;49.368;20.962;2023-03-24T14:03:35;94981.13;;;16.59;54.55
23339;BME280;11841;49.368;20.962;2023-03-24T14:06:04;94977.09;;;16.57;55.28
23339;BME280;11841;49.368;20.962;2023-03-24T14:13:52;94959.72;;;16.54;54.69
23339;BME280;11841;49.368;20.962;2023-03-24T14:16:26;94954.34;;;16.49;54.93
23339;BME280;11841;49.368;20.962;2023-03-24T14:19:18;94950.09;;;16.48;55.61
23339;BME280;11841;49.368;20.962;2023-03-24T14:21:49;94951.16;;;16.42;55.57
23339;BME280;11841;49.368;20.962;2023-03-24T14:24:25;94948.78;;;16.46;54.63
23339;BME280;11841;49.368;20.962;2023-03-24T14:26:52;94951.16;;;16.42;55.65
23339;BME280;11841;49.368;20.962;2023-03-24T14:29:38;94946.31;;;16.44;56.16
23339;BME280;11841;49.368;20.962;2023-03-24T14:32:05;94936.69;;;16.43;55.38
23339;BME280;11841;49.368;20.962;2023-03-24T14:34:55;94944.44;;;16.40;56.00
23339;BME280;11841;49.368;20.962;2023-03-24T14:37:23;94943.13;;;16.37;55.39
23339;BME280;11841;49.368;20.962;2023-03-24T14:39:50;94938.84;;;16.36;55.33
23339;BME280;11841;49.368;20.962;2023-03-24T14:45:09;94934.03;;;16.38;54.61
23339;BME280;11841;49.368;20.962;2023-03-24T14:47:48;94937.78;;;16.47;54.83
23339;BME280;11841;49.368;20.962;2023-03-24T14:50:22;94927.34;;;16.56;54.74
23339;BME280;11841;49.368;20.962;2023-03-24T14:52:54;94931.31;;;16.58;54.62
23339;BME280;11841;49.368;20.962;2023-03-24T14:55:22;94932.41;;;16.62;54.34
23339;BME280;11841;49.368;20.962;2023-03-24T14:57:51;94927.59;;;16.59;54.51
23339;BME280;11841;49.368;20.962;2023-03-24T15:00:22;94928.63;;;16.63;54.74
23339;BME280;11841;49.368;20.962;2023-03-24T15:02:51;94930.25;;;16.64;55.04
23339;BME280;11841;49.368;20.962;2023-03-24T15:07:57;94927.31;;;16.66;55.19
23339;BME280;11841;49.368;20.962;2023-03-24T15:10:25;94925.41;;;16.66;54.94
23339;BME280;11841;49.368;20.962;2023-03-24T15:12:52;94928.88;;;16.67;54.37
23339;BME280;11841;49.368;20.962;2023-03-24T15:15:21;94929.16;;;16.65;55.13
23339;BME280;11841;49.368;20.962;2023-03-24T15:17:48;94932.66;;;16.66;55.11
23339;BME280;11841;49.368;20.962;2023-03-24T15:22:45;94920.31;;;16.65;56.08
23339;BME280;11841;49.368;20.962;2023-03-24T15:25:12;94917.38;;;16.66;55.87
23339;BME280;11841;49.368;20.962;2023-03-24T15:27:39;94918.19;;;16.67;56.64
23339;BME280;11841;49.368;20.962;2023-03-24T15:30:11;94922.72;;;16.66;56.88
23339;BME280;11841;49.368;20.962;2023-03-24T15:32:38;94919.56;;;16.59;56.37
23339;BME280;11841;49.368;20.962;2023-03-24T15:35:13;94919.03;;;16.57;56.59
23339;BME280;11841;49.368;20.962;2023-03-24T15:37:40;94917.41;;;16.56;56.85
23339;BME280;11841;49.368;20.962;2023-03-24T15:42:52;94911.53;;;16.49;57.54
23339;BME280;11841;49.368;20.962;2023-03-24T15:47:56;94906.19;;;16.44;57.13
23339;BME280;11841;49.368;20.962;2023-03-24T15:50:31;94903.50;;;16.44;56.59
23339;BME280;11841;49.368;20.962;2023-03-24T15:53:03;94910.75;;;16.49;56.73
23339;BME280;11841;49.368;20.962;2023-03-24T15:55:31;94902.72;;;16.49;56.43
23339;BME280;11841;49.368;20.962;2023-03-24T15:58:01;94906.75;;;16.46;56.77
23339;BME280;11841;49.368;20.962;2023-03-24T16:00:29;94904.59;;;16.38;56.99